METAR AND TAF INFORMATION
METAR FOR KBUF
ADDS - METARS form results

(0859 UTC 24 October 2020)
Data provider http://aviationweather.gov/metar/data/
 
METAR text: KBUF 240854Z 27008KT 10SM SCT012 BKN020 OVC040 08/06 A3001 RMK AO2 RAE50 SLP160 P0002 60015 T00830056 51039 $
Conditions at: KBUF (BUFFALO/CHEEKTOW, NY, US) observed 0854 UTC 24 October 2020
Temperature: 8.3°C (47°F)
Dewpoint: 5.6°C (42°F) [RH = 83%]
Pressure (altimeter): 30.01 inches Hg (1016.3 mb)
[Sea-level pressure: 1016.0 mb]
Winds: from the W (270 degrees) at 9 MPH (8 knots; 4.1 m/s)
Visibility: 10 or more miles (16+ km)
Ceiling: 2000 feet AGL
Clouds: scattered clouds at 1200 feet AGL
broken clouds at 2000 feet AGL
overcast cloud deck at 4000 feet AGL
Weather:
SOME DATA ABOVE MAY BE INACCURATE!!!
"$" is an indication the sensor requires maintenance

METAR text: KBUF 240846Z 28011KT 10SM -RA SCT012 OVC020 08/06 A3000 RMK AO2 P0002 T00830056 $
Conditions at: KBUF (BUFFALO/CHEEKTOW, NY, US) observed 0846 UTC 24 October 2020
Temperature: 8.3°C (47°F)
Dewpoint: 5.6°C (42°F) [RH = 83%]
Pressure (altimeter): 30.00 inches Hg (1016.0 mb)
Winds: from the W (280 degrees) at 13 MPH (11 knots; 5.7 m/s)
Visibility: 10 or more miles (16+ km)
Ceiling: 2000 feet AGL
Clouds: scattered clouds at 1200 feet AGL
overcast cloud deck at 2000 feet AGL
Weather: -RA  (light rain)
SOME DATA ABOVE MAY BE INACCURATE!!!
"$" is an indication the sensor requires maintenance

METAR text: KBUF 240836Z 29011KT 10SM -RA SCT009 BKN014 OVC021 08/06 A2999 RMK AO2 P0002 T00830061 $
Conditions at: KBUF (BUFFALO/CHEEKTOW, NY, US) observed 0836 UTC 24 October 2020
Temperature: 8.3°C (47°F)
Dewpoint: 6.1°C (43°F) [RH = 86%]
Pressure (altimeter): 29.99 inches Hg (1015.7 mb)
Winds: from the WNW (290 degrees) at 13 MPH (11 knots; 5.7 m/s)
Visibility: 10 or more miles (16+ km)
Ceiling: 1400 feet AGL
Clouds: scattered clouds at 900 feet AGL
broken clouds at 1400 feet AGL
overcast cloud deck at 2100 feet AGL
Weather: -RA  (light rain)
SOME DATA ABOVE MAY BE INACCURATE!!!
"$" is an indication the sensor requires maintenance

METAR text: KBUF 240827Z 28010KT 10SM -RA BKN012 OVC020 08/07 A2999 RMK AO2 P0002 T00830067 $
Conditions at: KBUF (BUFFALO/CHEEKTOW, NY, US) observed 0827 UTC 24 October 2020
Temperature: 8.3°C (47°F)
Dewpoint: 6.7°C (44°F) [RH = 90%]
Pressure (altimeter): 29.99 inches Hg (1015.7 mb)
Winds: from the W (280 degrees) at 12 MPH (10 knots; 5.1 m/s)
Visibility: 10 or more miles (16+ km)
Ceiling: 1200 feet AGL
Clouds: broken clouds at 1200 feet AGL
overcast cloud deck at 2000 feet AGL
Weather: -RA  (light rain)
SOME DATA ABOVE MAY BE INACCURATE!!!
"$" is an indication the sensor requires maintenance

METAR text: KBUF 240803Z 28010KT 10SM -RA SCT009 OVC016 09/07 A2998 RMK AO2 P0000 T00890067 $
Conditions at: KBUF (BUFFALO/CHEEKTOW, NY, US) observed 0803 UTC 24 October 2020
Temperature: 8.9°C (48°F)
Dewpoint: 6.7°C (44°F) [RH = 86%]
Pressure (altimeter): 29.98 inches Hg (1015.3 mb)
Winds: from the W (280 degrees) at 12 MPH (10 knots; 5.1 m/s)
Visibility: 10 or more miles (16+ km)
Ceiling: 1600 feet AGL
Clouds: scattered clouds at 900 feet AGL
overcast cloud deck at 1600 feet AGL
Weather: -RA  (light rain)
SOME DATA ABOVE MAY BE INACCURATE!!!
"$" is an indication the sensor requires maintenance

Forecast for: KBUF (BUFFALO/CHEEKTOW, NY, US)
Text: KBUF 240853Z 2409/2506 28009KT 6SM BR OVC012
Forecast period: 0900 to 1200 UTC 24 October 2020
Forecast type: FROM: standard forecast or significant change
Winds: from the W (280 degrees) at 10 MPH (9 knots; 4.6 m/s)
Visibility: 6 miles (10 km)
Ceiling: 1200 feet AGL
Clouds: overcast cloud deck at 1200 feet AGL
Weather: BR  (mist)
Text: FM241200 32009KT P6SM BKN020
Forecast period: 1200 UTC 24 October 2020 to 0000 UTC 25 October 2020
Forecast type: FROM: standard forecast or significant change
Winds: from the NW (320 degrees) at 10 MPH (9 knots; 4.6 m/s)
Visibility: 6 or more miles (10+ km)
Ceiling: 2000 feet AGL
Clouds: broken clouds at 2000 feet AGL
Weather: no significant weather forecast for this period
Text: FM250000 33005KT P6SM SCT100
Forecast period: 0000 to 0600 UTC 25 October 2020
Forecast type: FROM: standard forecast or significant change
Winds: from the NNW (330 degrees) at 6 MPH (5 knots; 2.6 m/s)
Visibility: 6 or more miles (10+ km)
Ceiling: at least 12,000 feet AGL
Clouds: scattered clouds at 10000 feet AGL
Weather: no significant weather forecast for this period

 AIRPORT MAP

 RUNWAY INFORMATION
Runway 05 Runway length 8102 ft Runway width 150 ft
Runway elevation 679 ft Runway displaced threshold 324 ft Runway heading 44
Runway 23 Runway length 8102 ft Runway width 150 ft
Runway elevation 721 ft Runway displaced threshold 0 ft Runway heading 224
Runway 14 Runway length 7161 ft Runway width 150 ft
Runway elevation 698 ft Runway displaced threshold 320 ft Runway heading 127
Runway 32 Runway length 7161 ft Runway width 150 ft
Runway elevation 709 ft Runway displaced threshold 720 ft Runway heading 307

 AIRPORT FREQUENCIES
Type A/D Name APP/DEP Frequency 126.15 MHZ
Type ATIS Name ATIS Frequency 135.35 MHZ
Type CLD Name CLNC DEL Frequency 124.7 MHZ
Type GND Name GND Frequency 121.9 MHZ
Type RDO Name RDO Frequency 122.6 MHZ
Type TWR Name TWR Frequency 120.5 MHZ

 AIRPORT NEAR NAVIGATION AIDS
Type NDB Name Klump Frequency 231 KHZ
Type VOR-DME Name Buffalo Frequency 116400 KHZ
Type NDB Name Plazz Frequency 204 KHZ